Time;durP1;ratioP1;P1;durP2;ratioP2;P2;SDS_P1;SDS_P2;PMS_P1;PMS_P2;Temp;Humidity;BMP_temperature;BMP_pressure;BME280_temperature;BME280_humidity;BME280_pressure;Samples;Min_cycle;Max_cycle;Signal;HPM_P1;HPM_P2
2023/10/27 03:50:00;;;;;;;7.03;3.47;;;;;;;0.59;70.78;98710.31;6207070;23;20029;-95
2023/10/27 03:52:38;;;;;;;6.55;3.28;;;;;;;0.44;70.97;98672.63;6159512;23;20021;-93
2023/10/27 03:55:42;;;;;;;6.65;3.83;;;;;;;0.79;70.74;98723.03;6135336;23;20021;-94
2023/10/27 03:58:15;;;;;;;7.15;3.42;;;;;;;0.53;71.04;98684.50;6185960;23;20564;-95
2023/10/27 04:01:06;;;;;;;6.55;3.60;;;;;;;0.77;71.25;98727.06;6116811;23;20045;-87
2023/10/27 04:03:34;;;;;;;7.15;3.78;;;;;;;0.50;71.33;98671.56;6128307;23;20028;-87
2023/10/27 04:06:00;;;;;;;6.95;3.88;;;;;;;0.87;70.94;98705.59;6151934;23;20028;-86
2023/10/27 04:08:31;;;;;;;5.25;3.50;;;;;;;0.88;70.55;98699.13;6198620;23;20029;-87
2023/10/27 04:10:57;;;;;;;5.95;3.85;;;;;;;0.98;70.60;98704.53;6128314;23;20047;-89
2023/10/27 04:13:24;;;;;;;5.17;3.97;;;;;;;0.98;70.88;98701.03;6124805;23;20542;-84
2023/10/27 04:15:51;;;;;;;5.97;3.95;;;;;;;0.77;70.57;98655.25;6150720;23;20096;-88
2023/10/27 04:18:21;;;;;;;9.40;4.60;;;;;;;0.86;70.59;98655.53;6152798;23;20050;-90
2023/10/27 04:20:47;;;;;;;7.38;3.67;;;;;;;0.88;70.33;98662.25;6126815;23;20016;-88
2023/10/27 04:23:14;;;;;;;10.40;4.15;;;;;;;1.01;70.58;98669.03;6154565;23;20021;-87
2023/10/27 04:25:48;;;;;;;6.47;3.90;;;;;;;1.00;70.64;98672.00;6154753;23;20021;-92
2023/10/27 04:28:17;;;;;;;12.82;4.43;;;;;;;0.86;70.55;98656.34;6153561;23;20029;-89
2023/10/27 04:30:57;;;;;;;10.15;4.22;;;;;;;0.29;70.71;98562.31;6134414;23;20019;-92
2023/10/27 04:33:29;;;;;;;6.68;4.30;;;;;;;0.39;70.49;98568.53;6112944;23;20021;-91
2023/10/27 04:35:57;;;;;;;7.82;4.65;;;;;;;0.39;70.47;98563.16;6139577;23;20009;-91
2023/10/27 04:38:26;;;;;;;10.00;4.20;;;;;;;0.38;70.55;98545.41;6156677;23;20021;-88
2023/10/27 04:41:08;;;;;;;7.65;4.35;;;;;;;0.88;70.10;98605.75;6207162;23;20024;-89
2023/10/27 04:43:37;;;;;;;6.53;4.50;;;;;;;0.96;70.24;98641.28;6182765;23;20025;-88
2023/10/27 04:46:23;;;;;;;7.18;4.70;;;;;;;0.86;70.41;98620.53;6133121;23;20021;-86
2023/10/27 04:49:01;;;;;;;10.30;4.93;;;;;;;1.07;70.26;98659.06;6162869;23;20005;-92
2023/10/27 04:51:47;;;;;;;9.93;5.22;;;;;;;0.62;70.47;98590.66;6104315;23;20029;-93
2023/10/27 04:54:17;;;;;;;16.33;5.18;;;;;;;1.17;70.40;98664.47;6147614;23;20074;-88
2023/10/27 04:56:45;;;;;;;8.25;4.97;;;;;;;1.22;70.25;98675.22;6101086;23;20028;-88
2023/10/27 04:59:42;;;;;;;6.82;4.43;;;;;;;1.18;70.36;98674.97;6183250;23;20006;-87
2023/10/27 05:02:10;;;;;;;9.50;4.73;;;;;;;0.73;70.33;98584.22;6133025;23;20010;-88
2023/10/27 05:04:38;;;;;;;6.53;4.53;;;;;;;0.87;70.17;98606.03;6110683;23;20005;-87
2023/10/27 05:07:07;;;;;;;9.55;4.90;;;;;;;1.31;70.37;98659.38;6156990;23;19997;-88
2023/10/27 05:09:35;;;;;;;7.20;4.45;;;;;;;1.35;70.09;98657.75;6131069;23;20055;-91
2023/10/27 05:48:45;;;;;;;9.63;5.07;;;;;;;1.54;69.75;98626.50;6217117;23;19935;-90
2023/10/27 05:51:17;;;;;;;11.13;5.60;;;;;;;0.97;70.00;98522.63;6161170;23;20025;-87
2023/10/27 05:53:44;;;;;;;8.02;5.47;;;;;;;0.91;69.72;98521.00;6239983;23;20020;-91
2023/10/27 05:56:11;;;;;;;;;;;;;;;1.58;69.93;98637.56;6151846;23;20010;-89
2023/10/27 05:59:04;;;;;;;9.35;5.13;;;;;;;1.64;69.75;98649.94;6150059;23;19921;-90
2023/10/27 06:02:35;;;;;;;10.90;5.07;;;;;;;1.52;69.52;98615.19;6159144;23;20019;-88
2023/10/27 06:05:04;;;;;;;9.13;5.07;;;;;;;1.27;69.48;98569.44;6154402;23;20001;-89
2023/10/27 06:07:32;;;;;;;10.45;5.60;;;;;;;1.70;69.39;98621.13;6149353;23;20025;-88
2023/10/27 06:09:58;;;;;;;;;;;;;;;1.73;69.24;98617.88;6049787;23;20018;-88
2023/10/27 06:12:24;;;;;;;9.20;6.25;;;;;;;1.58;69.56;98578.28;6166272;23;19917;-89
2023/10/27 06:14:50;;;;;;;9.73;5.65;;;;;;;1.52;69.38;98555.13;6120674;23;20035;-88
2023/10/27 06:17:37;;;;;;;11.02;6.85;;;;;;;1.69;69.38;98588.00;6123692;23;20018;-89
2023/10/27 06:20:05;;;;;;;12.00;6.07;;;;;;;1.78;69.28;98586.31;6146790;23;20021;-88
2023/10/27 06:22:34;;;;;;;21.35;5.97;;;;;;;1.81;69.18;98593.06;6146441;23;20045;-89
2023/10/27 06:25:28;;;;;;;15.90;5.95;;;;;;;1.52;69.25;98526.31;6150808;23;20025;-88
2023/10/27 06:28:00;;;;;;;10.82;6.55;;;;;;;1.50;69.13;98523.09;6092769;23;20002;-89
2023/10/27 06:30:35;;;;;;;14.38;6.70;;;;;;;1.88;69.52;98578.22;6090289;23;20049;-87
2023/10/27 06:33:02;;;;;;;13.00;6.57;;;;;;;1.88;69.60;98572.81;6088030;23;20026;-87
2023/10/27 06:35:28;;;;;;;;;;;;;;;1.91;69.40;98579.56;6066592;23;20090;-89
2023/10/27 06:38:11;;;;;;;12.15;6.13;;;;;;;1.54;69.11;98529.53;6098350;23;19948;-88
2023/10/27 06:40:37;;;;;;;15.63;6.75;;;;;;;1.75;69.27;98567.22;6111908;23;20424;-89
2023/10/27 06:43:03;;;;;;;10.55;6.72;;;;;;;1.53;69.22;98522.56;6067783;23;20074;-89
2023/10/27 06:45:29;;;;;;;14.38;6.55;;;;;;;1.65;69.20;98543.78;6117965;23;20134;-89
2023/10/27 06:47:55;;;;;;;10.32;6.90;;;;;;;1.81;69.29;98569.63;6151180;23;20029;-89
2023/10/27 06:50:21;;;;;;;10.45;6.88;;;;;;;1.20;69.29;98462.06;6174506;23;20021;-89
2023/10/27 06:52:50;;;;;;;15.45;7.25;;;;;;;1.74;69.25;98527.88;6202682;23;20048;-88
2023/10/27 06:55:18;;;;;;;21.02;8.63;;;;;;;2.02;69.03;98556.91;6202067;23;20036;-89
2023/10/27 06:57:45;;;;;;;14.40;8.30;;;;;;;1.60;69.39;98495.34;6176751;23;20406;-87
2023/10/27 07:00:15;;;;;;;20.05;7.78;;;;;;;2.04;68.97;98543.13;6174832;23;20160;-90
2023/10/27 07:02:44;;;;;;;10.70;7.40;;;;;;;1.96;69.26;98549.91;6181783;23;20141;-89
2023/10/27 07:05:13;;;;;;;13.82;7.60;;;;;;;1.76;69.41;98514.97;6174922;23;20017;-88
2023/10/27 07:07:51;;;;;;;13.07;6.60;;;;;;;1.80;69.04;98510.63;6174123;23;20343;-89
2023/10/27 07:10:22;;;;;;;13.60;7.38;;;;;;;1.93;68.65;98534.28;6174390;23;20005;-89
2023/10/27 07:12:48;;;;;;;15.75;7.95;;;;;;;1.92;69.05;98540.75;6197977;23;20017;-87
2023/10/27 07:15:15;;;;;;;13.63;7.78;;;;;;;1.62;68.39;98493.97;6168622;23;20021;-86
2023/10/27 07:17:41;;;;;;;16.27;7.50;;;;;;;1.75;68.71;98522.22;6142742;23;20340;-87
2023/10/27 07:20:08;;;;;;;16.63;8.02;;;;;;;1.77;68.71;98514.66;6197963;23;20021;-89
2023/10/27 07:22:36;;;;;;;13.93;7.63;;;;;;;1.85;68.54;98511.41;6196253;23;20039;-86
2023/10/27 07:25:23;;;;;;;;;;;;;;;2.23;68.19;98557.59;6175554;23;20017;-86
2023/10/27 07:27:50;;;;;;;10.40;5.32;;;;;;;1.92;67.81;98513.81;6175768;23;19915;-87
2023/10/27 07:30:31;;;;;;;12.50;7.03;;;;;;;1.66;67.87;98470.00;6176696;23;20024;-86
2023/10/27 07:33:21;;;;;;;;;;;;;;;2.13;68.01;98551.47;6179912;23;20020;-89
2023/10/27 07:36:02;;;;;;;12.32;4.85;;;;;;;2.11;68.37;98546.34;6211957;23;19908;-88
2023/10/27 07:38:34;;;;;;;9.73;5.60;;;;;;;1.72;68.37;98486.94;6212136;23;20005;-91
2023/10/27 07:41:01;;;;;;;10.40;5.75;;;;;;;2.19;68.19;98556.56;6187798;23;19997;-87
2023/10/27 07:43:29;;;;;;;8.90;6.07;;;;;;;2.19;68.03;98540.38;6163596;23;20028;-87
2023/10/27 07:45:55;;;;;;;8.63;5.70;;;;;;;2.14;67.63;98515.31;6213392;23;20007;-87
2023/10/27 07:48:26;;;;;;;10.15;5.90;;;;;;;2.05;67.71;98502.44;6211854;23;20021;-88
2023/10/27 07:50:56;;;;;;;9.23;5.88;;;;;;;2.40;67.62;98554.56;6183140;23;20040;-93
2023/10/27 07:53:27;;;;;;;12.85;5.72;;;;;;;2.22;67.70;98503.94;6155375;23;20025;-87
2023/10/27 07:55:56;;;;;;;9.15;6.10;;;;;;;2.28;67.80;98506.34;6206025;23;20013;-88
2023/10/27 07:58:26;;;;;;;9.88;6.18;;;;;;;2.10;67.43;98477.34;6181911;23;20028;-87
2023/10/27 08:01:15;;;;;;;9.73;5.72;;;;;;;2.45;67.46;98538.34;6185579;23;20001;-89
2023/10/27 08:03:46;;;;;;;9.20;6.18;;;;;;;2.24;67.64;98501.78;6211343;23;20056;-91
2023/10/27 08:06:19;;;;;;;8.63;5.10;;;;;;;1.97;67.15;98465.25;6210911;23;20051;-90
2023/10/27 08:08:46;;;;;;;11.35;6.78;;;;;;;2.29;67.26;98499.06;6209466;23;20008;-88
2023/10/27 08:11:17;;;;;;;9.98;5.63;;;;;;;2.28;67.22;98490.16;6182863;23;20017;-88
2023/10/27 08:13:46;;;;;;;9.85;6.07;;;;;;;2.24;67.28;98488.31;6161672;23;20029;-88
2023/10/27 08:16:15;;;;;;;12.88;6.22;;;;;;;2.30;67.89;98498.78;6210149;23;20021;-87
2023/10/27 08:18:42;;;;;;;11.07;6.57;;;;;;;2.10;67.70;98475.44;6180927;23;20038;-87
2023/10/27 08:21:14;;;;;;;10.20;5.82;;;;;;;2.57;67.93;98530.72;6205909;23;20048;-90
2023/10/27 08:23:45;;;;;;;10.48;6.38;;;;;;;2.60;67.37;98518.56;6181145;23;20049;-89
2023/10/27 08:26:15;;;;;;;10.55;6.43;;;;;;;2.17;67.25;98460.84;6208150;23;20017;-89
2023/10/27 08:28:42;;;;;;;10.88;6.90;;;;;;;2.24;67.72;98496.41;6136391;23;20025;-90
2023/10/27 08:31:08;;;;;;;12.93;6.38;;;;;;;2.27;67.83;98493.94;6152435;23;20033;-88
2023/10/27 08:33:34;;;;;;;9.98;6.00;;;;;;;2.22;67.80;98471.59;6150969;23;20371;-88
2023/10/27 08:36:03;;;;;;;10.27;6.18;;;;;;;2.11;67.95;98447.38;6173595;23;20072;-90
2023/10/27 08:38:31;;;;;;;12.38;6.50;;;;;;;2.58;67.71;98509.94;6127587;23;20037;-91
2023/10/27 08:40:57;;;;;;;11.38;5.80;;;;;;;2.21;67.38;98451.13;6148212;23;20021;-91
2023/10/27 08:43:24;;;;;;;12.70;6.93;;;;;;;2.00;67.62;98421.59;6150629;23;20072;-90
2023/10/27 08:45:51;;;;;;;9.23;6.27;;;;;;;2.32;67.38;98452.69;6147528;23;20022;-89
2023/10/27 08:48:21;;;;;;;9.65;5.75;;;;;;;2.30;67.36;98458.34;6171202;23;20251;-89
2023/10/27 08:50:49;;;;;;;8.52;5.55;;;;;;;2.40;67.30;98476.34;6152699;23;20029;-91
2023/10/27 08:53:20;;;;;;;11.52;5.55;;;;;;;2.56;67.54;98490.53;6128628;23;19997;-90
2023/10/27 08:55:52;;;;;;;11.98;6.82;;;;;;;2.50;67.32;98470.06;6179641;23;20001;-90
2023/10/27 08:58:19;;;;;;;;;;;;;;;2.60;67.11;98488.88;6151518;23;20044;-89
2023/10/27 09:00:49;;;;;;;8.35;5.47;;;;;;;2.57;67.87;98490.25;6150877;23;19917;-89
2023/10/27 09:03:35;;;;;;;10.02;5.47;;;;;;;2.61;67.42;98484.28;6102760;23;20032;-90
2023/10/27 09:11:24;;;;;;;14.32;7.88;;;;;;;2.41;67.97;98469.06;6173881;23;20363;-90
2023/10/27 09:13:53;;;;;;;11.02;6.78;;;;;;;2.16;68.18;98440.38;6179554;23;20147;-90
2023/10/27 09:16:27;;;;;;;15.38;6.82;;;;;;;2.40;68.19;98483.63;6129764;23;20021;-89
2023/10/27 09:19:16;;;;;;;14.10;7.68;;;;;;;2.57;68.25;98500.22;6203864;23;20001;-89
2023/10/27 09:21:49;;;;;;;14.73;7.10;;;;;;;2.23;68.12;98430.88;6159652;23;20008;-92
2023/10/27 09:24:31;;;;;;;18.00;9.25;;;;;;;1.98;68.60;98406.78;6128138;23;20024;-91
2023/10/27 09:30:33;;;;;;;15.63;7.75;;;;;;;2.70;68.11;98475.31;6228459;23;20032;-90
2023/10/27 09:33:19;;;;;;;14.13;7.78;;;;;;;2.02;67.95;98373.63;6242155;23;20052;-90
2023/10/27 09:35:49;;;;;;;12.68;6.90;;;;;;;2.57;68.29;98436.28;6211096;23;20031;-90
2023/10/27 09:38:16;;;;;;;12.10;7.07;;;;;;;2.39;68.41;98404.63;6213354;23;20027;-91
2023/10/27 09:40:53;;;;;;;15.10;7.97;;;;;;;2.62;68.75;98434.66;6236593;23;20028;-91
2023/10/27 09:46:56;;;;;;;13.45;6.75;;;;;;;2.86;69.12;98472.50;6238479;23;20474;-89
2023/10/27 09:49:35;;;;;;;14.75;6.03;;;;;;;2.72;69.45;98466.94;6147555;23;20021;-90
2023/10/27 09:52:07;;;;;;;10.48;6.00;;;;;;;2.88;68.85;98465.75;6187263;23;20055;-91
2023/10/27 09:54:49;;;;;;;14.98;6.63;;;;;;;2.87;68.94;98469.50;6186468;23;20052;-90
2023/10/27 09:57:28;;;;;;;10.85;6.55;;;;;;;2.88;68.84;98465.75;6238362;23;20019;-92
2023/10/27 09:59:58;;;;;;;10.60;5.97;;;;;;;2.92;68.43;98466.78;6211490;23;20020;-89
2023/10/27 10:02:31;;;;;;;17.17;7.55;;;;;;;2.87;68.46;98461.41;6114416;23;20027;-90
2023/10/27 10:08:25;;;;;;;19.58;7.25;;;;;;;2.63;68.14;98398.50;6236349;23;20028;-92
2023/10/27 10:11:11;;;;;;;22.90;7.95;;;;;;;2.68;67.87;98428.09;6188016;23;20016;-91
2023/10/27 10:13:39;;;;;;;17.70;7.30;;;;;;;2.51;68.35;98391.56;6187566;23;20082;-89
2023/10/27 10:16:46;;;;;;;26.20;8.13;;;;;;;2.67;68.31;98427.31;6204288;23;20105;-93
2023/10/27 10:19:51;;;;;;;18.30;7.50;;;;;;;2.64;68.47;98418.97;6185375;23;20017;-89
2023/10/27 10:23:04;;;;;;;10.98;5.85;;;;;;;2.83;68.28;98444.97;6162138;23;20020;-90
2023/10/27 10:28:46;;;;;;;21.65;7.57;;;;;;;2.86;68.42;98440.13;6236927;23;20032;-90
2023/10/27 10:31:21;;;;;;;15.85;7.38;;;;;;;2.85;68.68;98435.78;6215391;23;20068;-91
2023/10/27 10:34:13;;;;;;;12.90;6.90;;;;;;;2.88;68.56;98432.50;6238631;23;20019;-91
2023/10/27 10:37:39;;;;;;;9.52;6.10;;;;;;;2.61;68.71;98384.47;6237531;23;20051;-90
2023/10/27 10:40:26;;;;;;;14.18;6.85;;;;;;;2.38;69.39;98351.75;6068014;23;20057;-91
2023/10/27 10:43:20;;;;;;;11.02;5.32;;;;;;;2.96;69.20;98426.53;6114984;23;20105;-90
2023/10/27 10:45:58;;;;;;;10.25;5.43;;;;;;;2.46;69.38;98361.94;6068088;23;20019;-90
2023/10/27 10:48:41;;;;;;;9.50;5.95;;;;;;;2.36;70.07;98332.38;6115921;23;20040;-90
2023/10/27 10:51:41;;;;;;;10.38;6.32;;;;;;;2.46;69.71;98326.88;6116339;23;20074;-90
2023/10/27 10:57:35;;;;;;;13.18;6.22;;;;;;;2.71;70.18;98370.88;6224957;23;20025;-89
2023/10/27 11:00:01;;;;;;;11.07;6.20;;;;;;;2.63;71.05;98377.69;6163746;23;20020;-90
2023/10/27 11:02:37;;;;;;;9.52;6.03;;;;;;;2.66;71.31;98379.84;6165085;23;20027;-90
2023/10/27 11:05:23;;;;;;;10.13;6.35;;;;;;;2.36;70.97;98345.84;6213720;23;20017;-88
2023/10/27 11:07:53;;;;;;;11.25;5.97;;;;;;;2.32;71.45;98324.03;6237893;23;20012;-90
2023/10/27 11:10:21;;;;;;;13.07;6.10;;;;;;;2.32;71.29;98348.31;6208625;23;20027;-90
2023/10/27 11:21:38;;;;;;;12.95;5.40;;;;;;;2.58;71.88;98375.03;6241866;23;20020;-92
2023/10/27 11:24:47;;;;;;;11.85;5.90;;;;;;;1.90;71.37;98262.66;6141485;23;20054;-91
2023/10/27 11:27:38;;;;;;;11.25;6.65;;;;;;;2.15;71.54;98299.34;6143342;23;20028;-91
2023/10/27 11:31:07;;;;;;;8.95;5.80;;;;;;;2.18;71.69;98295.31;6043816;23;20007;-91
2023/10/27 11:42:46;;;;;;;12.88;7.78;;;;;;;1.80;72.30;98265.44;6213733;23;20016;-93
2023/10/27 11:51:35;;;;;;;12.32;7.65;;;;;;;2.02;72.68;98281.97;6216376;23;20028;-92
2023/10/27 11:57:12;;;;;;;13.15;8.32;;;;;;;2.21;72.81;98298.22;6268751;22;20054;-92
2023/10/27 12:08:27;;;;;;;13.48;8.20;;;;;;;1.59;73.06;98222.50;6239395;23;20008;-93
2023/10/27 12:17:47;;;;;;;12.30;7.50;;;;;;;2.30;73.10;98315.41;6238693;23;20005;-91
2023/10/27 12:20:45;;;;;;;12.57;7.45;;;;;;;2.11;72.98;98274.84;6212818;23;20021;-90
2023/10/27 12:26:12;;;;;;;12.35;7.05;;;;;;;2.27;73.36;98307.09;6183345;23;20013;-91
2023/10/27 12:28:47;;;;;;;12.30;7.60;;;;;;;2.14;73.00;98273.50;6109871;23;20005;-92
2023/10/27 12:51:58;;;;;;;9.57;4.78;;;;;;;1.74;72.85;98209.97;6242667;23;19997;-92
2023/10/27 12:57:34;;;;;;;9.80;4.65;;;;;;;2.27;72.74;98293.59;6197406;23;20024;-92
2023/10/27 13:00:29;;;;;;;9.38;4.80;;;;;;;2.18;72.84;98289.91;6160178;23;20009;-90
2023/10/27 13:03:07;;;;;;;9.77;4.15;;;;;;;1.94;73.08;98258.31;6158789;23;20080;-92
2023/10/27 13:08:44;;;;;;;8.70;4.55;;;;;;;2.27;73.04;98294.41;6241762;23;20386;-94
2023/10/27 13:11:39;;;;;;;10.50;5.68;;;;;;;1.99;73.25;98255.59;6213847;23;20016;-92
2023/10/27 13:14:21;;;;;;;7.57;4.53;;;;;;;1.55;73.18;98164.88;6179359;23;20024;-90
2023/10/27 13:17:13;;;;;;;12.35;4.22;;;;;;;2.08;72.59;98278.13;6242667;23;20038;-92
2023/10/27 13:23:36;;;;;;;7.45;4.10;;;;;;;1.97;73.37;98260.44;6242945;23;20070;-92
2023/10/27 13:26:23;;;;;;;6.65;4.00;;;;;;;2.10;73.45;98275.16;6216689;23;20020;-94
2023/10/27 13:41:36;;;;;;;6.60;3.67;;;;;;;1.62;73.33;98213.03;6237202;23;20059;-92
2023/10/27 13:44:07;;;;;;;6.70;4.00;;;;;;;1.78;73.33;98235.25;6157857;23;20021;-90
2023/10/27 13:46:50;;;;;;;9.70;4.00;;;;;;;2.06;73.73;98271.44;6157018;23;19993;-94
2023/10/27 13:49:41;;;;;;;7.13;4.22;;;;;;;1.73;73.47;98222.66;6159970;23;20017;-94
2023/10/27 13:55:17;;;;;;;8.30;3.88;;;;;;;1.54;73.85;98208.25;6179760;23;20030;-92
2023/10/27 14:13:03;;;;;;;7.07;4.35;;;;;;;1.65;74.14;98250.97;6216490;23;20043;-92
2023/10/27 14:15:37;;;;;;;8.60;4.50;;;;;;;1.81;74.09;98275.13;6121872;23;20000;-91
2023/10/27 14:18:12;;;;;;;6.43;4.30;;;;;;;1.71;74.12;98251.75;6141083;23;20005;-90
2023/10/27 14:23:33;;;;;;;5.80;3.30;;;;;;;1.76;73.74;98259.81;6240016;23;20020;-90
2023/10/27 14:26:20;;;;;;;7.45;4.20;;;;;;;1.94;73.75;98279.06;6193025;23;20004;-89
2023/10/27 14:28:47;;;;;;;6.80;3.60;;;;;;;1.58;73.54;98225.44;6192260;23;20032;-92
2023/10/27 14:31:23;;;;;;;9.40;4.03;;;;;;;1.54;73.53;98200.97;6191976;23;20055;-91
2023/10/27 14:34:30;;;;;;;7.05;4.07;;;;;;;2.00;73.55;98283.34;6136940;22;20020;-94
2023/10/27 14:37:39;;;;;;;6.40;3.70;;;;;;;1.81;73.32;98242.78;6137098;23;20063;-91
2023/10/27 14:40:14;;;;;;;10.93;4.60;;;;;;;1.23;73.24;98156.53;6135007;23;20031;-90
2023/10/27 14:43:29;;;;;;;8.40;4.90;;;;;;;1.96;73.46;98275.00;6135287;23;20052;-92
2023/10/27 14:46:22;;;;;;;10.02;4.53;;;;;;;1.30;73.60;98151.63;6078590;23;20022;-93
2023/10/27 16:29:19;;;;;;;7.20;3.45;;;;;;;1.86;72.49;98191.56;6197173;22;20008;-92
2023/10/27 16:32:03;;;;;;;7.78;3.50;;;;;;;1.63;72.31;98147.31;6240854;22;20071;-94
2023/10/27 16:34:36;;;;;;;5.57;3.63;;;;;;;1.83;72.65;98192.94;6141685;23;20029;-93
2023/10/27 16:37:22;;;;;;;5.93;3.25;;;;;;;2.09;72.74;98217.75;6211840;22;20188;-92
2023/10/27 16:40:32;;;;;;;5.68;3.28;;;;;;;1.60;72.55;98148.69;6168944;22;20012;-92
2023/10/27 16:44:04;;;;;;;11.25;4.30;;;;;;;1.63;72.95;98153.50;6213479;23;20032;-93
2023/10/27 16:46:50;;;;;;;6.38;3.63;;;;;;;1.53;72.73;98134.75;6162119;23;20001;-93
2023/10/27 16:50:06;;;;;;;6.75;3.97;;;;;;;1.47;72.76;98119.72;6070343;23;20047;-92
2023/10/27 16:52:35;;;;;;;6.15;3.40;;;;;;;1.93;72.54;98178.56;6012700;23;20033;-90
2023/10/27 16:55:04;;;;;;;12.93;3.67;;;;;;;1.57;73.30;98153.81;6012924;23;20083;-89
2023/10/27 16:57:31;;;;;;;7.25;3.38;;;;;;;1.76;73.33;98167.41;6011549;23;20014;-86
2023/10/27 16:59:58;;;;;;;6.72;3.97;;;;;;;1.96;73.26;98187.97;6029754;23;20688;-88
2023/10/27 17:02:26;;;;;;;6.85;3.85;;;;;;;1.91;72.76;98180.72;6027800;23;20042;-89
2023/10/27 17:04:53;;;;;;;5.43;3.05;;;;;;;1.75;72.88;98155.81;6030292;23;20037;-85
2023/10/27 17:07:20;;;;;;;21.80;7.93;;;;;;;1.80;73.64;98161.16;6053928;23;20019;-90
2023/10/27 17:09:50;;;;;;;12.50;5.93;;;;;;;1.65;73.37;98134.34;6074402;23;20019;-88
2023/10/27 17:12:18;;;;;;;9.65;4.82;;;;;;;1.82;73.10;98168.94;6077136;23;20018;-89
2023/10/27 17:14:49;;;;;;;13.15;5.72;;;;;;;1.71;73.04;98141.31;6025367;23;20019;-88
2023/10/27 17:17:17;;;;;;;8.95;4.10;;;;;;;1.92;73.43;98170.75;6025001;23;20019;-90
2023/10/27 17:19:47;;;;;;;9.18;4.10;;;;;;;1.63;73.57;98134.66;6052217;23;20106;-89
2023/10/27 17:22:14;;;;;;;8.02;3.90;;;;;;;1.75;73.60;98157.69;6006753;23;20393;-86
2023/10/27 17:24:43;;;;;;;11.25;4.82;;;;;;;1.77;74.39;98142.88;6054816;23;20026;-89
2023/10/27 17:27:11;;;;;;;11.48;4.25;;;;;;;1.92;73.54;98154.56;6126718;23;20655;-90
2023/10/27 17:29:38;;;;;;;;;;;;;;;1.92;74.07;98178.81;6174398;23;20021;-88
2023/10/27 17:32:10;;;;;;;5.80;3.45;;;;;;;1.64;73.91;98138.13;6171443;23;19920;-88
2023/10/27 17:34:37;;;;;;;8.40;3.58;;;;;;;1.99;74.14;98166.66;6198841;23;20087;-86
2023/10/27 17:37:07;;;;;;;5.78;3.55;;;;;;;1.93;73.76;98167.78;6177041;23;20017;-90
2023/10/27 17:39:37;;;;;;;8.35;3.80;;;;;;;1.63;73.79;98105.03;6148033;23;20021;-92
2023/10/27 17:42:05;;;;;;;8.35;3.88;;;;;;;1.44;73.64;98092.53;6204476;23;20024;-89
2023/10/27 17:44:34;;;;;;;8.60;4.68;;;;;;;1.97;73.76;98163.41;6234594;23;20000;-88
2023/10/27 17:47:01;;;;;;;8.57;4.70;;;;;;;1.75;73.61;98142.34;6180652;23;20386;-88
2023/10/27 17:49:29;;;;;;;;;;;;;;;2.00;73.47;98168.25;6206436;23;20035;-88
2023/10/27 17:52:01;;;;;;;7.18;3.78;;;;;;;1.46;73.41;98091.19;6232091;23;19935;-88
2023/10/27 17:55:08;;;;;;;8.05;4.05;;;;;;;2.05;73.90;98170.91;6168975;23;20115;-87
2023/10/27 17:57:39;;;;;;;16.23;9.13;;;;;;;1.91;73.34;98155.66;6233473;23;20068;-89
2023/10/27 18:00:12;;;;;;;10.48;6.07;;;;;;;1.65;73.49;98124.38;6144521;23;20004;-89
2023/10/27 18:02:56;;;;;;;8.57;4.47;;;;;;;1.52;73.24;98111.56;6215502;23;20020;-89
2023/10/27 18:05:26;;;;;;;8.02;4.65;;;;;;;1.47;73.66;98103.56;6132532;23;20017;-87
2023/10/27 18:07:59;;;;;;;8.52;3.95;;;;;;;1.52;73.81;98122.34;6206482;23;20068;-89
2023/10/27 18:11:08;;;;;;;7.18;4.18;;;;;;;1.80;73.71;98152.28;6210479;23;20034;-93
2023/10/27 18:13:50;;;;;;;7.75;4.25;;;;;;;1.82;73.58;98142.81;6211693;23;20021;-90
2023/10/27 18:17:09;;;;;;;8.38;4.43;;;;;;;1.59;73.18;98109.38;6140833;23;20004;-90
2023/10/27 18:22:49;;;;;;;5.50;3.55;;;;;;;1.68;72.98;98100.66;6053546;23;20056;-92
2023/10/27 18:25:19;;;;;;;10.63;4.47;;;;;;;1.72;73.46;98150.97;6114248;23;20022;-88
2023/10/27 18:28:23;;;;;;;;;;;;;;;2.11;73.46;98187.81;6094377;23;20105;-88
2023/10/27 18:30:51;;;;;;;6.85;3.55;;;;;;;1.89;72.98;98155.97;6109244;23;19917;-90
2023/10/27 18:33:48;;;;;;;5.25;3.42;;;;;;;1.43;72.96;98062.13;6067961;23;20033;-90
2023/10/27 18:36:25;;;;;;;6.43;4.00;;;;;;;1.80;73.01;98128.03;6091841;23;20022;-94
2023/10/27 18:41:53;;;;;;;6.55;3.85;;;;;;;2.02;72.92;98144.50;6176576;23;20029;-90
2023/10/27 18:48:25;;;;;;;6.63;3.50;;;;;;;2.22;72.62;98183.09;6127467;23;20022;-94
2023/10/27 18:55:25;;;;;;;6.15;3.55;;;;;;;2.14;73.48;98176.44;6151506;23;20006;-96
2023/10/27 18:59:30;;;;;;;5.30;3.35;;;;;;;2.16;73.03;98168.09;6153038;23;20029;-90
2023/10/27 19:09:56;;;;;;;4.70;3.08;;;;;;;1.95;73.52;98127.84;6181249;23;20056;-88
2023/10/27 19:16:23;;;;;;;5.53;3.42;;;;;;;1.39;73.59;98037.66;6144012;23;20025;-91
2023/10/27 19:18:53;;;;;;;5.22;3.45;;;;;;;1.74;73.37;98099.53;6095291;23;20108;-90
2023/10/27 19:21:22;;;;;;;6.45;4.05;;;;;;;1.97;73.14;98119.50;6141928;23;20108;-88
2023/10/27 19:23:58;;;;;;;5.63;3.45;;;;;;;1.71;73.01;98084.72;6171501;23;20017;-90
2023/10/27 19:27:50;;;;;;;6.00;3.38;;;;;;;2.16;73.07;98154.63;6170763;23;20036;-92
2023/10/27 19:52:19;;;;;;;7.03;4.28;;;;;;;2.30;72.48;98137.44;6176783;23;20016;-92
2023/10/27 19:55:24;;;;;;;7.35;4.30;;;;;;;2.03;72.71;98094.09;6159628;23;20035;-94
2023/10/27 20:00:51;;;;;;;7.70;4.53;;;;;;;1.73;72.89;98044.06;6198612;23;20021;-91
2023/10/27 20:03:44;;;;;;;;;;;;;;;2.17;73.12;98137.34;6134952;23;20025;-94
2023/10/27 20:06:34;;;;;;;6.47;3.92;;;;;;;1.92;73.51;98109.59;6055108;23;19922;-93
2023/10/27 20:09:28;;;;;;;9.68;4.45;;;;;;;2.05;73.32;98143.94;6009050;23;20047;-92
2023/10/27 20:16:38;;;;;;;6.15;3.97;;;;;;;1.54;72.79;98041.28;6036654;23;20027;-93
2023/10/27 20:24:30;;;;;;;5.50;3.87;;;;;;;1.52;72.72;98022.69;5979135;24;20059;-92
2023/10/27 20:31:35;;;;;;;10.57;4.63;;;;;;;2.13;72.26;98131.72;5977562;24;20031;-93
2023/10/27 20:35:16;;;;;;;7.93;4.35;;;;;;;1.72;72.23;98063.97;5945817;24;20029;-94
2023/10/27 20:46:06;;;;;;;;;;;;;;;;;;;;;
2023/10/27 20:48:59;;;;;;;14.07;5.00;;;;;;;1.68;71.94;98025.25;6008192;23;20031;-92
2023/10/27 20:52:04;;;;;;;8.10;4.95;;;;;;;1.63;71.77;98034.19;6097176;23;20044;-93
2023/10/27 20:55:40;;;;;;;7.20;4.53;;;;;;;2.27;72.36;98132.63;6212428;23;20020;-92
